createdAt,value
2022-09-03T00:00:19.208Z,0.40
2022-09-03T00:02:54.952Z,0.40
2022-09-03T00:05:26.996Z,0.40
2022-09-03T00:08:03.948Z,0.43
2022-09-03T00:10:45.486Z,0.40
2022-09-03T00:13:21.003Z,0.20
2022-09-03T00:15:50.478Z,0.40
2022-09-03T00:18:22.284Z,0.40
2022-09-03T00:20:57.541Z,0.32
2022-09-03T00:23:32.879Z,0.50
2022-09-03T00:26:19.004Z,0.22
2022-09-03T00:29:00.924Z,0.30
2022-09-03T00:31:37.509Z,0.43
2022-09-03T00:34:16.736Z,0.30
2022-09-03T00:36:46.551Z,0.47
2022-09-03T00:39:16.562Z,0.50
2022-09-03T00:41:59.553Z,0.50
2022-09-03T00:45:01.893Z,0.50
2022-09-03T00:47:41.982Z,0.40
2022-09-03T00:50:16.337Z,0.40
2022-09-03T00:52:55.754Z,0.50
2022-09-03T00:55:36.850Z,0.50
2022-09-03T00:58:37.799Z,0.40
2022-09-03T01:01:16.148Z,0.40
2022-09-03T01:03:58.683Z,0.45
2022-09-03T01:06:38.084Z,0.52
2022-09-03T01:09:24.819Z,0.57
2022-09-03T01:12:02.301Z,0.50
2022-09-03T01:14:43.222Z,0.40
2022-09-03T01:17:31.563Z,0.60
2022-09-03T01:20:15.183Z,0.47
2022-09-03T01:23:36.369Z,0.60
2022-09-03T01:26:28.646Z,0.40
2022-09-03T01:29:07.550Z,0.30
2022-09-03T01:31:42.348Z,0.40
2022-09-03T01:34:23.128Z,0.50
2022-09-03T01:37:02.385Z,0.22
2022-09-03T01:39:40.101Z,0.30
2022-09-03T01:42:24.718Z,0.40
2022-09-03T01:47:58.836Z,0.30
2022-09-03T01:50:40.322Z,0.40
2022-09-03T01:53:14.584Z,0.50
2022-09-03T01:58:34.427Z,0.32
2022-09-03T02:01:15.012Z,0.30
2022-09-03T02:03:49.934Z,0.20
2022-09-03T02:06:20.792Z,0.32
2022-09-03T02:08:48.732Z,0.30
2022-09-03T02:11:19.731Z,0.43
2022-09-03T02:13:57.613Z,0.40
2022-09-03T02:16:32.689Z,0.40
2022-09-03T02:19:04.215Z,0.40
2022-09-03T02:21:40.296Z,0.20
2022-09-03T02:24:09.929Z,0.20
2022-09-03T02:26:41.539Z,0.20
2022-09-03T02:29:09.622Z,0.50
2022-09-03T02:31:38.927Z,0.50
2022-09-03T02:34:10.365Z,0.60
2022-09-03T02:36:42.093Z,0.20
2022-09-03T02:39:10.368Z,0.30
2022-09-03T02:41:38.411Z,0.40
2022-09-03T02:44:13.965Z,0.50
2022-09-03T02:46:51.391Z,0.30
2022-09-03T02:49:19.311Z,0.20
2022-09-03T02:51:49.738Z,0.22
2022-09-03T02:54:21.060Z,0.25
2022-09-03T02:56:49.894Z,0.20
2022-09-03T02:59:18.346Z,0.40
2022-09-03T03:01:53.820Z,0.17
2022-09-03T03:04:30.624Z,0.30
2022-09-03T03:06:58.747Z,0.30
2022-09-03T03:09:26.685Z,0.20
2022-09-03T03:11:55.467Z,0.50
2022-09-03T03:14:24.165Z,0.28
2022-09-03T03:16:53.544Z,0.20
2022-09-03T03:19:21.620Z,0.38
2022-09-03T03:21:49.520Z,0.30
2022-09-03T03:24:24.646Z,0.30
2022-09-03T03:26:58.050Z,0.28
2022-09-03T03:29:35.815Z,0.37
2022-09-03T03:32:05.336Z,0.20
2022-09-03T03:34:33.395Z,0.30
2022-09-03T03:37:04.589Z,0.30
2022-09-03T03:39:36.393Z,0.30
2022-09-03T03:42:04.624Z,0.30
2022-09-03T03:44:32.959Z,0.40
2022-09-03T03:47:01.121Z,0.40
2022-09-03T03:49:35.679Z,0.30
2022-09-03T03:52:10.195Z,0.20
2022-09-03T03:54:38.279Z,0.25
2022-09-03T03:57:06.321Z,0.22
2022-09-03T03:59:34.936Z,0.20
2022-09-03T04:02:03.076Z,0.38
2022-09-03T04:04:47.343Z,0.20
2022-09-03T04:07:15.291Z,0.22
2022-09-03T04:09:47.276Z,0.40
2022-09-03T04:12:15.236Z,0.30
2022-09-03T04:14:50.415Z,0.40
2022-09-03T04:17:22.074Z,0.30
2022-09-03T04:22:21.704Z,0.20
2022-09-03T04:24:52.130Z,0.20
2022-09-03T04:27:25.101Z,0.30
2022-09-03T04:29:52.978Z,0.40
2022-09-03T04:32:42.316Z,0.35
2022-09-03T04:35:19.012Z,0.40
2022-09-03T04:37:46.874Z,0.38
2022-09-03T04:40:17.815Z,0.38
2022-09-03T04:42:48.598Z,0.30
2022-09-03T04:45:19.597Z,0.40
2022-09-03T04:48:05.508Z,0.40
2022-09-03T04:50:37.772Z,0.52
2022-09-03T04:53:08.160Z,0.30
2022-09-03T04:55:39.549Z,0.30
2022-09-03T04:58:08.718Z,0.20
2022-09-03T05:00:37.856Z,0.30
2022-09-03T05:03:06.369Z,0.30
2022-09-03T05:05:53.379Z,0.30
2022-09-03T05:08:21.743Z,0.35
2022-09-03T05:10:49.773Z,0.25
2022-09-03T05:13:22.979Z,0.40
2022-09-03T05:15:50.903Z,0.20
2022-09-03T05:18:21.703Z,0.57
2022-09-03T05:21:01.687Z,0.30
2022-09-03T05:23:36.967Z,0.30
2022-09-03T05:26:10.808Z,0.38
2022-09-03T05:28:40.708Z,0.17
2022-09-03T05:31:10.852Z,0.20
2022-09-03T05:33:42.882Z,0.20
2022-09-03T05:36:14.053Z,0.22
2022-09-03T05:38:42.021Z,0.40
2022-09-03T05:41:14.619Z,0.30
2022-09-03T05:43:43.340Z,0.30
2022-09-03T05:46:13.268Z,0.50
2022-09-03T05:48:43.093Z,0.30
2022-09-03T05:51:17.006Z,0.38
2022-09-03T05:53:46.722Z,1.08
2022-09-03T05:56:17.972Z,0.40
2022-09-03T05:58:48.369Z,0.30
2022-09-03T06:01:18.256Z,0.50
2022-09-03T06:03:48.065Z,0.35
2022-09-03T06:06:17.339Z,0.30
2022-09-03T06:08:45.399Z,0.30
2022-09-03T06:11:14.045Z,0.40
2022-09-03T06:13:42.060Z,0.30
2022-09-03T06:16:11.483Z,0.60
2022-09-03T06:18:39.594Z,0.20
2022-09-03T06:21:08.928Z,0.40
2022-09-03T06:23:38.186Z,0.50
2022-09-03T06:26:11.385Z,0.30
2022-09-03T06:28:44.484Z,0.35
2022-09-03T06:31:14.522Z,0.30
2022-09-03T06:33:45.936Z,0.28
2022-09-03T06:36:25.769Z,0.25
2022-09-03T06:38:56.611Z,0.13
2022-09-03T06:41:26.919Z,0.60
2022-09-03T06:43:57.294Z,0.60
2022-09-03T06:46:25.330Z,0.60
2022-09-03T06:48:58.112Z,0.60
2022-09-03T06:51:30.976Z,0.43
2022-09-03T06:54:04.305Z,0.60
2022-09-03T06:56:38.869Z,0.40
2022-09-03T06:59:10.999Z,0.57
2022-09-03T07:01:45.286Z,0.80
2022-09-03T07:04:16.268Z,0.55
2022-09-03T07:06:48.587Z,0.38
2022-09-03T07:09:21.038Z,0.45
2022-09-03T07:11:49.466Z,0.60
2022-09-03T07:14:18.733Z,0.40
2022-09-03T07:16:47.601Z,0.60
2022-09-03T07:19:27.374Z,0.47
2022-09-03T07:21:55.264Z,0.63
2022-09-03T07:24:32.752Z,0.38
2022-09-03T07:27:01.515Z,0.30
2022-09-03T07:29:29.567Z,0.30
2022-09-03T07:31:59.248Z,0.40
2022-09-03T07:34:30.429Z,0.40
2022-09-03T07:36:58.649Z,0.45
2022-09-03T07:39:26.828Z,0.40
2022-09-03T07:42:03.638Z,0.30
2022-09-03T07:44:31.578Z,0.57
2022-09-03T07:47:00.708Z,0.35
2022-09-03T07:49:31.720Z,0.70
2022-09-03T07:51:59.894Z,0.38
2022-09-03T07:54:28.527Z,0.40
2022-09-03T07:56:58.609Z,0.55
2022-09-03T07:59:26.739Z,0.63
2022-09-03T08:01:54.856Z,0.47
2022-09-03T08:04:23.096Z,0.50
2022-09-03T08:06:55.513Z,0.63
2022-09-03T08:09:23.696Z,0.60
2022-09-03T08:11:51.565Z,0.55
2022-09-03T08:14:21.594Z,0.63
2022-09-03T08:16:49.560Z,0.52
2022-09-03T08:19:18.333Z,0.50
2022-09-03T08:21:46.916Z,0.40
2022-09-03T08:24:17.149Z,0.50
2022-09-03T08:26:51.432Z,0.63
2022-09-03T08:29:24.562Z,0.30
2022-09-03T08:31:52.480Z,0.50
2022-09-03T08:34:21.423Z,0.43
2022-09-03T08:36:50.512Z,0.50
2022-09-03T08:39:18.553Z,0.65
2022-09-03T08:42:23.754Z,0.40
2022-09-03T08:50:02.492Z,0.10
2022-09-03T08:52:33.800Z,0.40
2022-09-03T08:55:14.833Z,0.40
2022-09-03T08:57:49.632Z,0.43
2022-09-03T09:00:19.878Z,0.43
2022-09-03T09:02:59.419Z,0.47
2022-09-03T09:05:42.885Z,0.30
2022-09-03T09:08:25.703Z,0.50
2022-09-03T09:11:07.066Z,0.70
2022-09-03T09:13:43.431Z,0.32
2022-09-03T09:16:20.275Z,0.43
2022-09-03T09:19:11.657Z,0.50
2022-09-03T09:21:46.229Z,0.50
2022-09-03T09:24:23.534Z,0.32
2022-09-03T09:27:00.945Z,0.40
2022-09-03T09:29:32.928Z,0.47
2022-09-03T09:32:04.637Z,0.20
2022-09-03T09:34:35.586Z,0.50
2022-09-03T09:37:07.423Z,0.45
2022-09-03T09:39:35.638Z,0.80
2022-09-03T09:42:09.513Z,0.70
2022-09-03T09:44:38.693Z,0.50
2022-09-03T09:47:24.840Z,0.40
2022-09-03T09:49:58.116Z,0.40
2022-09-03T09:52:31.503Z,0.38
2022-09-03T09:55:09.264Z,0.70
2022-09-03T09:57:43.426Z,0.73
2022-09-03T10:00:37.795Z,0.40
2022-09-03T10:03:13.824Z,0.40
2022-09-03T10:05:43.649Z,0.43
2022-09-03T10:08:26.382Z,0.40
2022-09-03T10:10:54.373Z,0.45
2022-09-03T10:13:27.426Z,0.43
2022-09-03T10:16:04.733Z,0.50
2022-09-03T10:18:44.583Z,0.40
2022-09-03T10:21:17.197Z,0.20
2022-09-03T10:23:56.593Z,0.30
2022-09-03T10:26:32.467Z,0.22
2022-09-03T10:29:03.879Z,0.40
2022-09-03T10:31:46.454Z,0.55
2022-09-03T10:34:33.308Z,0.77
2022-09-03T10:37:10.285Z,0.90
2022-09-03T10:39:52.467Z,0.52
2022-09-03T10:42:35.766Z,0.57
2022-09-03T10:45:23.470Z,0.30
2022-09-03T10:48:22.750Z,0.47
2022-09-03T10:50:57.359Z,0.50
2022-09-03T10:53:37.642Z,0.75
2022-09-03T10:56:12.979Z,0.50
2022-09-03T10:58:57.145Z,0.90
2022-09-03T11:01:52.635Z,0.35
2022-09-03T11:04:36.384Z,0.50
2022-09-03T11:07:11.047Z,0.77
2022-09-03T11:09:43.151Z,0.50
2022-09-03T11:12:17.743Z,0.50
2022-09-03T11:14:50.175Z,0.55
2022-09-03T11:17:25.201Z,0.55
2022-09-03T11:20:01.158Z,0.40
2022-09-03T11:22:32.093Z,0.40
2022-09-03T11:25:05.237Z,0.38
2022-09-03T11:27:50.655Z,0.30
2022-09-03T11:30:29.996Z,0.55
2022-09-03T11:33:02.048Z,0.40
2022-09-03T11:35:41.740Z,0.50
2022-09-03T11:38:24.766Z,0.40
2022-09-03T11:41:01.272Z,0.40
2022-09-03T11:43:34.657Z,0.45
2022-09-03T11:46:11.918Z,0.50
2022-09-03T11:48:45.283Z,0.30
2022-09-03T11:51:33.297Z,0.40
2022-09-03T11:54:04.116Z,0.45
2022-09-03T11:56:33.434Z,0.40
2022-09-03T11:59:17.359Z,0.32
2022-09-03T12:01:53.376Z,0.63
2022-09-03T12:04:25.557Z,0.40
2022-09-03T12:07:31.082Z,0.40
2022-09-03T12:10:20.730Z,0.35
2022-09-03T12:12:55.930Z,0.60
2022-09-03T12:15:41.901Z,0.40
2022-09-03T12:18:20.147Z,0.57
2022-09-03T12:20:51.011Z,0.20
2022-09-03T12:23:30.768Z,0.30
2022-09-03T12:26:04.084Z,0.50
2022-09-03T12:28:36.258Z,0.30
2022-09-03T12:31:21.508Z,0.38
2022-09-03T12:33:54.900Z,0.50
2022-09-03T12:36:27.428Z,0.40
2022-09-03T12:39:12.783Z,0.50
2022-09-03T12:41:56.930Z,0.50
2022-09-03T12:44:42.816Z,0.30
2022-09-03T12:50:08.098Z,0.40
2022-09-03T12:52:41.225Z,0.50
2022-09-03T12:55:22.467Z,0.47
2022-09-03T12:58:02.203Z,0.30
2022-09-03T13:00:33.888Z,0.32
2022-09-03T13:03:26.106Z,0.30
2022-09-03T13:05:58.112Z,0.40
2022-09-03T13:08:31.157Z,0.60
2022-09-03T13:11:01.051Z,0.40
2022-09-03T13:13:37.903Z,1.05
2022-09-03T13:16:57.252Z,0.30
2022-09-03T13:19:36.250Z,0.50
2022-09-03T13:22:12.954Z,0.57
2022-09-03T13:25:04.024Z,0.30
2022-09-03T13:27:40.249Z,0.25
2022-09-03T13:30:13.720Z,0.30
2022-09-03T13:33:00.868Z,0.32
2022-09-03T13:35:38.425Z,0.30
2022-09-03T13:38:19.837Z,0.40
2022-09-03T13:40:53.751Z,0.32
2022-09-03T13:46:01.155Z,0.55
2022-09-03T13:48:51.616Z,0.28
2022-09-03T13:51:30.860Z,0.30
2022-09-03T13:54:09.909Z,0.50
2022-09-03T13:56:55.233Z,0.20
2022-09-03T13:59:31.159Z,0.30
2022-09-03T14:02:11.860Z,0.45
2022-09-03T14:04:52.902Z,0.40
2022-09-03T14:07:25.458Z,0.40
2022-09-03T14:10:09.159Z,0.50
2022-09-03T14:12:46.691Z,0.20
2022-09-03T14:15:21.707Z,0.40
2022-09-03T14:17:58.652Z,0.50
2022-09-03T14:20:45.629Z,0.55
2022-09-03T14:23:28.050Z,0.35
2022-09-03T14:26:03.809Z,0.60
2022-09-03T14:28:35.478Z,0.40
2022-09-03T14:31:14.237Z,0.60
2022-09-03T14:33:56.407Z,0.30
2022-09-03T14:36:33.496Z,0.50
2022-09-03T14:39:30.842Z,0.57
2022-09-03T14:42:44.696Z,0.40
2022-09-03T14:45:36.810Z,0.50
2022-09-03T14:48:36.780Z,0.40
2022-09-03T14:51:25.043Z,0.73
2022-09-03T14:54:23.865Z,0.30
2022-09-03T14:57:13.049Z,0.45
2022-09-03T15:00:10.366Z,0.55
2022-09-03T15:06:42.615Z,0.30
2022-09-03T15:09:40.148Z,0.30
2022-09-03T15:12:17.479Z,0.60
2022-09-03T15:14:54.205Z,0.50
2022-09-03T15:17:37.381Z,0.68
2022-09-03T15:20:27.461Z,0.40
2022-09-03T15:23:18.371Z,0.20
2022-09-03T15:26:17.561Z,0.20
2022-09-03T15:29:12.454Z,0.20
2022-09-03T15:31:59.134Z,0.20
2022-09-03T15:34:43.890Z,0.35
2022-09-03T15:37:18.400Z,0.20
2022-09-03T15:40:03.667Z,0.30
2022-09-03T15:42:34.609Z,0.30
2022-09-03T15:45:15.911Z,0.30
2022-09-03T15:47:55.262Z,0.20
2022-09-03T15:50:34.812Z,0.40
2022-09-03T15:53:14.111Z,0.45
2022-09-03T15:56:13.460Z,0.22
2022-09-03T15:58:52.953Z,0.30
2022-09-03T16:01:36.030Z,0.40
2022-09-03T16:04:13.761Z,0.40
2022-09-03T16:06:55.084Z,0.40
2022-09-03T16:09:44.113Z,0.60
2022-09-03T16:12:31.961Z,0.45
2022-09-03T16:15:04.917Z,0.38
2022-09-03T16:17:39.580Z,0.20
2022-09-03T16:20:15.637Z,0.35
2022-09-03T16:22:50.357Z,0.38
2022-09-03T16:25:24.238Z,0.43
2022-09-03T16:30:46.080Z,0.50
2022-09-03T16:33:27.315Z,0.40
2022-09-03T16:36:08.041Z,0.32
2022-09-03T16:38:49.353Z,0.40
2022-09-03T16:41:28.968Z,0.50
2022-09-03T16:44:14.240Z,0.38
2022-09-03T16:46:52.231Z,0.30
2022-09-03T16:49:39.691Z,0.30
2022-09-03T16:52:18.489Z,0.40
2022-09-03T16:55:12.142Z,0.40
2022-09-03T16:58:09.451Z,0.40
2022-09-03T17:00:52.125Z,0.30
2022-09-03T17:03:42.807Z,0.55
2022-09-03T17:06:41.294Z,0.43
2022-09-03T17:09:28.644Z,0.40
2022-09-03T17:12:06.246Z,0.60
2022-09-03T17:15:03.541Z,0.55
2022-09-03T17:17:49.829Z,0.25
2022-09-03T17:20:38.279Z,0.45
2022-09-03T17:23:18.495Z,0.40
2022-09-03T17:25:55.965Z,0.30
2022-09-03T17:28:35.461Z,0.40
2022-09-03T17:31:12.764Z,0.45
2022-09-03T17:33:58.517Z,0.40
2022-09-03T17:36:28.249Z,0.40
2022-09-03T17:39:25.564Z,0.38
2022-09-03T17:41:55.103Z,0.30
2022-09-03T17:44:41.942Z,0.47
2022-09-03T17:47:39.580Z,0.52
2022-09-03T17:50:18.229Z,0.50
2022-09-03T17:52:50.724Z,0.50
2022-09-03T17:55:30.872Z,0.40
2022-09-03T17:58:10.327Z,0.60
2022-09-03T18:00:46.094Z,0.40
2022-09-03T18:03:20.845Z,0.30
2022-09-03T18:06:01.146Z,0.50
2022-09-03T18:08:37.434Z,0.57
2022-09-03T18:11:13.828Z,0.35
2022-09-03T18:13:51.542Z,0.45
2022-09-03T18:16:27.502Z,0.70
2022-09-03T18:19:03.834Z,0.70
2022-09-03T18:21:56.048Z,0.55
2022-09-03T18:24:51.127Z,0.50
2022-09-03T18:27:41.046Z,0.77
2022-09-03T18:30:34.810Z,1.33
2022-09-03T18:33:24.192Z,1.37
2022-09-03T18:36:09.947Z,2.03
2022-09-03T18:38:58.646Z,2.13
2022-09-03T18:42:14.851Z,2.45
2022-09-03T18:45:23.255Z,1.92
2022-09-03T18:48:21.355Z,2.00
2022-09-03T18:51:17.434Z,1.08
2022-09-03T18:54:24.419Z,1.40
2022-09-03T18:57:12.726Z,1.20
2022-09-03T19:00:18.095Z,1.10
2022-09-03T19:03:15.752Z,1.00
2022-09-03T19:06:18.603Z,0.80
2022-09-03T19:09:14.501Z,0.82
2022-09-03T19:12:22.491Z,0.70
2022-09-03T19:15:15.440Z,0.85
2022-09-03T19:18:22.575Z,0.50
2022-09-03T19:21:16.894Z,0.82
2022-09-03T19:24:07.812Z,0.60
2022-09-03T19:27:03.291Z,0.60
2022-09-03T19:30:16.213Z,0.43
2022-09-03T19:33:18.684Z,0.60
2022-09-03T19:36:13.165Z,0.50
2022-09-03T19:39:24.347Z,0.80
2022-09-03T19:42:20.552Z,0.50
2022-09-03T19:45:22.004Z,0.80
2022-09-03T19:48:20.730Z,0.80
2022-09-03T19:51:24.425Z,0.80
2022-09-03T19:54:20.128Z,0.80
2022-09-03T19:57:06.950Z,0.55
2022-09-03T19:59:59.082Z,0.68
2022-09-03T20:02:47.939Z,0.63
2022-09-03T20:05:40.202Z,0.63
2022-09-03T20:08:32.432Z,0.57
2022-09-03T20:11:03.441Z,0.50
2022-09-03T20:13:56.492Z,0.65
2022-09-03T20:16:31.328Z,0.70
2022-09-03T20:19:07.721Z,0.85
2022-09-03T20:21:44.891Z,0.70
2022-09-03T20:24:28.339Z,0.90
2022-09-03T20:27:10.339Z,0.80
2022-09-03T20:29:55.951Z,0.68
2022-09-03T20:32:44.078Z,0.70
2022-09-03T20:35:23.493Z,0.70
2022-09-03T20:38:01.017Z,0.50
2022-09-03T20:40:46.578Z,0.70
2022-09-03T20:43:34.925Z,0.95
2022-09-03T20:46:45.438Z,0.50
2022-09-03T20:49:24.755Z,0.50
2022-09-03T20:52:07.173Z,0.68
2022-09-03T20:54:48.579Z,0.57
2022-09-03T20:57:34.718Z,0.70
2022-09-03T21:00:10.624Z,0.90
2022-09-03T21:02:53.470Z,1.08
2022-09-03T21:05:34.687Z,1.05
2022-09-03T21:08:14.031Z,0.82
2022-09-03T21:10:53.705Z,0.80
2022-09-03T21:13:38.710Z,0.70
2022-09-03T21:16:21.374Z,0.85
2022-09-03T21:19:00.151Z,1.08
2022-09-03T21:21:46.186Z,0.70
2022-09-03T21:24:21.020Z,0.75
2022-09-03T21:26:58.700Z,0.50
2022-09-03T21:29:41.754Z,0.73
2022-09-03T21:38:08.035Z,0.70
2022-09-03T21:40:41.640Z,0.50
2022-09-03T21:43:18.536Z,0.43
2022-09-03T21:45:54.734Z,0.65
2022-09-03T21:48:36.447Z,0.60
2022-09-03T21:51:11.425Z,0.90
2022-09-03T21:53:45.275Z,0.80
2022-09-03T21:56:37.712Z,0.85
2022-09-03T21:59:13.235Z,0.60
2022-09-03T22:02:07.249Z,0.60
2022-09-03T22:04:37.010Z,0.75
2022-09-03T22:07:15.359Z,0.77
2022-09-03T22:09:51.423Z,0.75
2022-09-03T22:12:30.991Z,0.77
2022-09-03T22:15:25.422Z,0.43
2022-09-03T22:18:00.950Z,1.00
2022-09-03T22:20:30.341Z,1.15
2022-09-03T22:23:13.358Z,0.90
2022-09-03T22:25:50.114Z,0.90
2022-09-03T22:28:31.175Z,0.80
2022-09-03T22:31:08.271Z,0.70
2022-09-03T22:33:43.569Z,1.10
2022-09-03T22:36:18.143Z,1.13
2022-09-03T22:39:11.754Z,0.77
2022-09-03T22:41:57.574Z,0.80
2022-09-03T22:44:51.147Z,0.50
2022-09-03T22:47:30.863Z,0.60
2022-09-03T22:50:23.390Z,0.85
2022-09-03T22:53:11.788Z,0.73
2022-09-03T22:55:46.463Z,1.42
2022-09-03T22:58:21.330Z,0.75
2022-09-03T23:01:11.637Z,0.40
2022-09-03T23:03:42.989Z,0.50
2022-09-03T23:06:29.079Z,0.82
2022-09-03T23:09:02.507Z,0.73
2022-09-03T23:14:30.907Z,0.70
2022-09-03T23:17:07.440Z,0.70
2022-09-03T23:19:41.106Z,0.90
2022-09-03T23:22:13.553Z,0.63
2022-09-03T23:24:47.995Z,0.60
2022-09-03T23:27:21.509Z,0.70
2022-09-03T23:29:53.459Z,0.70
2022-09-03T23:32:22.034Z,0.75
2022-09-03T23:34:57.128Z,0.80
2022-09-03T23:37:38.012Z,0.80
2022-09-03T23:40:26.096Z,0.60
2022-09-03T23:43:29.755Z,0.55
2022-09-03T23:46:10.146Z,0.63
2022-09-03T23:48:55.288Z,0.70
2022-09-03T23:51:32.809Z,0.93
2022-09-03T23:54:10.241Z,0.40
2022-09-03T23:57:10.089Z,0.93
